Main page
METAR-TAF:

METAR-TAF

Airports :

Gwadar, Pakistan

Gwadar International Airport

latitude: 25-13-59N, longitude: 062-19-46E, elevation: 29 m

METAR: missing

Time: 04:14 (23:14 UTC)

Forecast

The report was made 7 hours and 44 minutes ago, at 15:30 UTC
Forecast valid from 23 at 18 UTC to 24 at 18 UTC
Wind 8 kt from the Southwest
Visibility: 3000 m
Scattered clouds at a height of 2000 ft
Broken clouds at a height of 8000 ft
smoke
Temporary
from 24 at 00 UTC to 24 at 04 UTC
Wind 4 kt from the Southwest
Visibility: 2000 m
Scattered clouds at a height of 2000 ft
mist
From 24 at 0400 UTC
Wind 5 kt from the Southwest with gusts up to 15 kt
Visibility: 4000 m
haze

TAF: OPGD 231530Z 2318/2418 23008KT 3000 FU SCT020 BKN080 TEMPO 2400/2404 23004KT 2000 BR SCT020 FM240400 23005G15KT 4000 HZ NSC

Weather observations and forecasts of more than 4000 airports (METAR and TAF reports).

The available stations are represented by yellow and red dots on the map.

Hover mouse over dot to see the name of the station.

Then click to see weather observations and forecasts.

To change the map : click on the green buttons with a black cross to zoom in, on the green button with a dash to zoom out, or on the green arrows for adjacent maps.


METAR-TAF: